sensor_id;sensor_type;location;lat;lon;timestamp;P1;durP1;ratioP1;P2;durP2;ratioP2
37955;SDS011;23776;51.592;7.180;2022-12-18T00:02:21;106.60;;;39.17;;
37955;SDS011;23776;51.592;7.180;2022-12-18T00:04:47;110.63;;;39.08;;
37955;SDS011;23776;51.592;7.180;2022-12-18T00:07:13;106.18;;;38.38;;
37955;SDS011;23776;51.592;7.180;2022-12-18T00:09:39;101.65;;;39.20;;
37955;SDS011;23776;51.592;7.180;2022-12-18T00:12:04;101.95;;;38.08;;
37955;SDS011;23776;51.592;7.180;2022-12-18T00:14:30;103.20;;;38.85;;
37955;SDS011;23776;51.592;7.180;2022-12-18T00:16:56;106.45;;;39.22;;
37955;SDS011;23776;51.592;7.180;2022-12-18T00:19:23;115.00;;;39.03;;
37955;SDS011;23776;51.592;7.180;2022-12-18T00:21:49;104.28;;;40.22;;
37955;SDS011;23776;51.592;7.180;2022-12-18T00:24:14;109.35;;;40.70;;
37955;SDS011;23776;51.592;7.180;2022-12-18T00:26:40;109.20;;;38.80;;
37955;SDS011;23776;51.592;7.180;2022-12-18T00:29:07;115.15;;;40.78;;
37955;SDS011;23776;51.592;7.180;2022-12-18T00:31:36;110.03;;;39.00;;
37955;SDS011;23776;51.592;7.180;2022-12-18T00:34:03;109.78;;;40.35;;
37955;SDS011;23776;51.592;7.180;2022-12-18T00:36:30;107.72;;;38.63;;
37955;SDS011;23776;51.592;7.180;2022-12-18T00:38:58;113.07;;;38.95;;
37955;SDS011;23776;51.592;7.180;2022-12-18T00:41:25;103.82;;;39.00;;
37955;SDS011;23776;51.592;7.180;2022-12-18T00:44:11;109.85;;;40.25;;
37955;SDS011;23776;51.592;7.180;2022-12-18T00:46:38;116.43;;;39.83;;
37955;SDS011;23776;51.592;7.180;2022-12-18T00:49:04;124.80;;;40.28;;
37955;SDS011;23776;51.592;7.180;2022-12-18T00:51:30;107.43;;;39.45;;
37955;SDS011;23776;51.592;7.180;2022-12-18T00:53:55;107.78;;;39.85;;
37955;SDS011;23776;51.592;7.180;2022-12-18T00:56:21;118.22;;;40.13;;
37955;SDS011;23776;51.592;7.180;2022-12-18T00:58:47;114.82;;;37.45;;
37955;SDS011;23776;51.592;7.180;2022-12-18T01:01:13;114.18;;;37.70;;
37955;SDS011;23776;51.592;7.180;2022-12-18T01:03:39;105.03;;;40.58;;
37955;SDS011;23776;51.592;7.180;2022-12-18T01:06:08;98.05;;;35.58;;
37955;SDS011;23776;51.592;7.180;2022-12-18T01:08:36;94.38;;;39.00;;
37955;SDS011;23776;51.592;7.180;2022-12-18T01:11:15;105.20;;;37.25;;
37955;SDS011;23776;51.592;7.180;2022-12-18T01:13:43;107.75;;;36.63;;
37955;SDS011;23776;51.592;7.180;2022-12-18T01:16:10;108.40;;;39.70;;
37955;SDS011;23776;51.592;7.180;2022-12-18T01:18:37;117.57;;;38.22;;
37955;SDS011;23776;51.592;7.180;2022-12-18T01:21:06;110.10;;;37.45;;
37955;SDS011;23776;51.592;7.180;2022-12-18T01:23:33;103.93;;;37.65;;
37955;SDS011;23776;51.592;7.180;2022-12-18T01:26:03;98.80;;;37.22;;
37955;SDS011;23776;51.592;7.180;2022-12-18T01:28:30;107.65;;;35.25;;
37955;SDS011;23776;51.592;7.180;2022-12-18T01:30:56;106.18;;;35.25;;
37955;SDS011;23776;51.592;7.180;2022-12-18T01:33:21;110.72;;;37.78;;
37955;SDS011;23776;51.592;7.180;2022-12-18T01:35:47;92.05;;;34.85;;
37955;SDS011;23776;51.592;7.180;2022-12-18T01:38:12;99.38;;;35.08;;
37955;SDS011;23776;51.592;7.180;2022-12-18T01:40:38;95.93;;;34.75;;
37955;SDS011;23776;51.592;7.180;2022-12-18T01:43:03;103.50;;;37.25;;
37955;SDS011;23776;51.592;7.180;2022-12-18T01:45:30;91.88;;;32.63;;
37955;SDS011;23776;51.592;7.180;2022-12-18T01:48:03;110.07;;;37.53;;
37955;SDS011;23776;51.592;7.180;2022-12-18T01:50:38;93.43;;;33.95;;
37955;SDS011;23776;51.592;7.180;2022-12-18T01:53:07;119.53;;;36.17;;
37955;SDS011;23776;51.592;7.180;2022-12-18T01:55:40;101.43;;;35.72;;
37955;SDS011;23776;51.592;7.180;2022-12-18T02:00:37;92.90;;;32.03;;
37955;SDS011;23776;51.592;7.180;2022-12-18T02:03:02;94.07;;;35.20;;
37955;SDS011;23776;51.592;7.180;2022-12-18T02:05:36;104.47;;;38.05;;
37955;SDS011;23776;51.592;7.180;2022-12-18T02:16:21;98.03;;;36.17;;
37955;SDS011;23776;51.592;7.180;2022-12-18T02:27:36;95.10;;;34.45;;
37955;SDS011;23776;51.592;7.180;2022-12-18T02:30:03;99.03;;;34.03;;
37955;SDS011;23776;51.592;7.180;2022-12-18T02:32:34;92.50;;;34.78;;
37955;SDS011;23776;51.592;7.180;2022-12-18T02:35:02;101.53;;;35.70;;
37955;SDS011;23776;51.592;7.180;2022-12-18T02:37:30;97.60;;;36.08;;
37955;SDS011;23776;51.592;7.180;2022-12-18T02:39:57;84.28;;;34.47;;
37955;SDS011;23776;51.592;7.180;2022-12-18T02:42:24;88.57;;;32.53;;
37955;SDS011;23776;51.592;7.180;2022-12-18T02:44:51;97.53;;;34.65;;
37955;SDS011;23776;51.592;7.180;2022-12-18T02:47:17;98.00;;;33.97;;
37955;SDS011;23776;51.592;7.180;2022-12-18T02:50:08;100.88;;;34.30;;
37955;SDS011;23776;51.592;7.180;2022-12-18T02:58:27;95.53;;;33.85;;
37955;SDS011;23776;51.592;7.180;2022-12-18T03:01:01;92.65;;;34.50;;
37955;SDS011;23776;51.592;7.180;2022-12-18T03:03:46;89.88;;;32.22;;
37955;SDS011;23776;51.592;7.180;2022-12-18T03:06:26;92.55;;;33.97;;
37955;SDS011;23776;51.592;7.180;2022-12-18T03:09:02;87.40;;;32.08;;
37955;SDS011;23776;51.592;7.180;2022-12-18T03:11:33;84.70;;;32.38;;
37955;SDS011;23776;51.592;7.180;2022-12-18T03:14:21;88.10;;;30.00;;
37955;SDS011;23776;51.592;7.180;2022-12-18T03:16:49;90.30;;;32.58;;
37955;SDS011;23776;51.592;7.180;2022-12-18T03:19:20;84.85;;;33.10;;
37955;SDS011;23776;51.592;7.180;2022-12-18T03:21:50;92.93;;;33.83;;
37955;SDS011;23776;51.592;7.180;2022-12-18T03:24:19;85.15;;;33.40;;
37955;SDS011;23776;51.592;7.180;2022-12-18T03:26:49;85.60;;;33.90;;
37955;SDS011;23776;51.592;7.180;2022-12-18T03:29:22;90.47;;;32.85;;
37955;SDS011;23776;51.592;7.180;2022-12-18T03:31:58;88.15;;;31.33;;
37955;SDS011;23776;51.592;7.180;2022-12-18T03:34:37;88.57;;;33.80;;
37955;SDS011;23776;51.592;7.180;2022-12-18T03:37:05;86.35;;;32.08;;
37955;SDS011;23776;51.592;7.180;2022-12-18T03:39:31;88.38;;;32.55;;
37955;SDS011;23776;51.592;7.180;2022-12-18T03:42:07;79.82;;;29.83;;
37955;SDS011;23776;51.592;7.180;2022-12-18T03:44:43;77.65;;;31.73;;
37955;SDS011;23776;51.592;7.180;2022-12-18T03:47:15;92.63;;;32.70;;
37955;SDS011;23776;51.592;7.180;2022-12-18T03:52:38;89.60;;;29.83;;
37955;SDS011;23776;51.592;7.180;2022-12-18T03:55:14;85.10;;;31.45;;
37955;SDS011;23776;51.592;7.180;2022-12-18T03:57:42;90.55;;;32.08;;
37955;SDS011;23776;51.592;7.180;2022-12-18T04:00:10;85.97;;;30.95;;
37955;SDS011;23776;51.592;7.180;2022-12-18T04:02:39;82.10;;;32.28;;
37955;SDS011;23776;51.592;7.180;2022-12-18T04:05:09;80.18;;;29.48;;
37955;SDS011;23776;51.592;7.180;2022-12-18T04:07:37;83.45;;;30.15;;
37955;SDS011;23776;51.592;7.180;2022-12-18T04:10:03;93.13;;;32.13;;
37955;SDS011;23776;51.592;7.180;2022-12-18T04:12:32;88.47;;;30.88;;
37955;SDS011;23776;51.592;7.180;2022-12-18T04:14:57;80.20;;;29.10;;
37955;SDS011;23776;51.592;7.180;2022-12-18T04:17:23;74.10;;;30.60;;
37955;SDS011;23776;51.592;7.180;2022-12-18T04:19:48;82.50;;;30.23;;
37955;SDS011;23776;51.592;7.180;2022-12-18T04:22:14;74.97;;;31.13;;
37955;SDS011;23776;51.592;7.180;2022-12-18T04:24:40;77.88;;;29.33;;
37955;SDS011;23776;51.592;7.180;2022-12-18T04:27:05;67.53;;;27.65;;
37955;SDS011;23776;51.592;7.180;2022-12-18T04:29:31;85.40;;;30.88;;
37955;SDS011;23776;51.592;7.180;2022-12-18T04:31:56;68.60;;;26.98;;
37955;SDS011;23776;51.592;7.180;2022-12-18T04:34:22;70.75;;;28.52;;
37955;SDS011;23776;51.592;7.180;2022-12-18T04:36:47;71.45;;;26.60;;
37955;SDS011;23776;51.592;7.180;2022-12-18T04:39:13;79.13;;;27.52;;
37955;SDS011;23776;51.592;7.180;2022-12-18T04:41:39;80.72;;;27.75;;
37955;SDS011;23776;51.592;7.180;2022-12-18T04:44:04;71.40;;;27.52;;
37955;SDS011;23776;51.592;7.180;2022-12-18T04:46:30;74.68;;;27.13;;
37955;SDS011;23776;51.592;7.180;2022-12-18T04:48:56;79.05;;;28.85;;
37955;SDS011;23776;51.592;7.180;2022-12-18T04:51:21;83.45;;;28.08;;
37955;SDS011;23776;51.592;7.180;2022-12-18T04:53:47;74.63;;;26.73;;
37955;SDS011;23776;51.592;7.180;2022-12-18T04:56:13;78.47;;;29.58;;
37955;SDS011;23776;51.592;7.180;2022-12-18T04:58:40;81.20;;;28.90;;
37955;SDS011;23776;51.592;7.180;2022-12-18T05:01:07;65.10;;;26.55;;
37955;SDS011;23776;51.592;7.180;2022-12-18T05:03:33;67.90;;;27.27;;
37955;SDS011;23776;51.592;7.180;2022-12-18T05:05:59;84.15;;;28.60;;
37955;SDS011;23776;51.592;7.180;2022-12-18T05:08:25;66.60;;;27.13;;
37955;SDS011;23776;51.592;7.180;2022-12-18T05:11:05;80.10;;;27.23;;
37955;SDS011;23776;51.592;7.180;2022-12-18T05:13:33;74.65;;;26.83;;
37955;SDS011;23776;51.592;7.180;2022-12-18T05:15:59;81.28;;;29.42;;
37955;SDS011;23776;51.592;7.180;2022-12-18T05:18:25;71.95;;;26.45;;
37955;SDS011;23776;51.592;7.180;2022-12-18T05:20:52;64.82;;;27.05;;
37955;SDS011;23776;51.592;7.180;2022-12-18T05:23:18;58.60;;;23.40;;
37955;SDS011;23776;51.592;7.180;2022-12-18T05:25:54;72.43;;;25.80;;
37955;SDS011;23776;51.592;7.180;2022-12-18T05:28:22;55.63;;;23.73;;
37955;SDS011;23776;51.592;7.180;2022-12-18T05:30:53;74.07;;;25.83;;
37955;SDS011;23776;51.592;7.180;2022-12-18T05:33:21;68.28;;;24.00;;
37955;SDS011;23776;51.592;7.180;2022-12-18T05:35:52;63.83;;;24.20;;
37955;SDS011;23776;51.592;7.180;2022-12-18T05:38:19;67.28;;;24.02;;
37955;SDS011;23776;51.592;7.180;2022-12-18T05:40:46;62.15;;;24.00;;
37955;SDS011;23776;51.592;7.180;2022-12-18T05:43:12;69.18;;;26.38;;
37955;SDS011;23776;51.592;7.180;2022-12-18T05:45:39;70.47;;;25.42;;
37955;SDS011;23776;51.592;7.180;2022-12-18T05:48:05;63.90;;;25.23;;
37955;SDS011;23776;51.592;7.180;2022-12-18T05:50:35;66.00;;;25.42;;
37955;SDS011;23776;51.592;7.180;2022-12-18T05:53:02;68.45;;;24.70;;
37955;SDS011;23776;51.592;7.180;2022-12-18T05:55:29;72.35;;;25.23;;
37955;SDS011;23776;51.592;7.180;2022-12-18T05:57:58;65.85;;;24.73;;
37955;SDS011;23776;51.592;7.180;2022-12-18T06:00:23;67.40;;;24.17;;
37955;SDS011;23776;51.592;7.180;2022-12-18T06:02:49;58.67;;;24.77;;
37955;SDS011;23776;51.592;7.180;2022-12-18T06:05:15;69.22;;;23.20;;
37955;SDS011;23776;51.592;7.180;2022-12-18T06:07:40;68.75;;;24.20;;
37955;SDS011;23776;51.592;7.180;2022-12-18T06:10:06;54.63;;;22.75;;
37955;SDS011;23776;51.592;7.180;2022-12-18T06:12:32;59.92;;;22.80;;
37955;SDS011;23776;51.592;7.180;2022-12-18T06:14:58;55.10;;;22.80;;
37955;SDS011;23776;51.592;7.180;2022-12-18T06:17:31;63.65;;;21.80;;
37955;SDS011;23776;51.592;7.180;2022-12-18T06:19:57;54.78;;;23.80;;
37955;SDS011;23776;51.592;7.180;2022-12-18T06:22:23;74.15;;;26.35;;
37955;SDS011;23776;51.592;7.180;2022-12-18T06:24:49;61.83;;;23.35;;
37955;SDS011;23776;51.592;7.180;2022-12-18T06:27:15;64.97;;;23.77;;
37955;SDS011;23776;51.592;7.180;2022-12-18T06:29:40;71.00;;;26.13;;
37955;SDS011;23776;51.592;7.180;2022-12-18T06:32:06;69.88;;;24.80;;
37955;SDS011;23776;51.592;7.180;2022-12-18T06:34:32;61.83;;;24.33;;
37955;SDS011;23776;51.592;7.180;2022-12-18T06:36:58;71.85;;;25.92;;
37955;SDS011;23776;51.592;7.180;2022-12-18T06:39:24;63.83;;;24.38;;
37955;SDS011;23776;51.592;7.180;2022-12-18T06:41:49;71.15;;;25.83;;
37955;SDS011;23776;51.592;7.180;2022-12-18T06:44:15;67.70;;;26.23;;
37955;SDS011;23776;51.592;7.180;2022-12-18T06:46:41;76.78;;;25.73;;
37955;SDS011;23776;51.592;7.180;2022-12-18T06:49:06;65.40;;;24.90;;
37955;SDS011;23776;51.592;7.180;2022-12-18T06:51:34;78.35;;;25.73;;
37955;SDS011;23776;51.592;7.180;2022-12-18T06:53:59;64.68;;;23.23;;
37955;SDS011;23776;51.592;7.180;2022-12-18T06:56:25;58.90;;;23.13;;
37955;SDS011;23776;51.592;7.180;2022-12-18T06:58:50;69.93;;;24.70;;
37955;SDS011;23776;51.592;7.180;2022-12-18T07:01:16;56.42;;;22.38;;
37955;SDS011;23776;51.592;7.180;2022-12-18T07:03:42;65.00;;;23.00;;
37955;SDS011;23776;51.592;7.180;2022-12-18T07:06:14;64.53;;;21.48;;
37955;SDS011;23776;51.592;7.180;2022-12-18T07:08:42;53.97;;;22.35;;
37955;SDS011;23776;51.592;7.180;2022-12-18T07:11:08;57.60;;;21.45;;
37955;SDS011;23776;51.592;7.180;2022-12-18T07:13:33;54.83;;;19.80;;
37955;SDS011;23776;51.592;7.180;2022-12-18T07:16:03;46.25;;;19.20;;
37955;SDS011;23776;51.592;7.180;2022-12-18T07:18:39;58.33;;;20.80;;
37955;SDS011;23776;51.592;7.180;2022-12-18T07:21:05;53.03;;;19.17;;
37955;SDS011;23776;51.592;7.180;2022-12-18T07:23:33;46.55;;;19.35;;
37955;SDS011;23776;51.592;7.180;2022-12-18T07:26:09;48.92;;;19.08;;
37955;SDS011;23776;51.592;7.180;2022-12-18T07:28:37;52.08;;;20.10;;
37955;SDS011;23776;51.592;7.180;2022-12-18T07:31:04;47.97;;;17.05;;
37955;SDS011;23776;51.592;7.180;2022-12-18T07:33:34;53.72;;;18.55;;
37955;SDS011;23776;51.592;7.180;2022-12-18T07:36:00;47.42;;;16.63;;
37955;SDS011;23776;51.592;7.180;2022-12-18T07:38:28;53.13;;;18.73;;
37955;SDS011;23776;51.592;7.180;2022-12-18T07:40:54;45.28;;;17.75;;
37955;SDS011;23776;51.592;7.180;2022-12-18T07:43:24;42.35;;;16.38;;
37955;SDS011;23776;51.592;7.180;2022-12-18T07:45:50;49.95;;;18.70;;
37955;SDS011;23776;51.592;7.180;2022-12-18T07:48:15;42.13;;;18.48;;
37955;SDS011;23776;51.592;7.180;2022-12-18T07:50:41;47.63;;;18.27;;
37955;SDS011;23776;51.592;7.180;2022-12-18T07:53:06;54.25;;;18.33;;
37955;SDS011;23776;51.592;7.180;2022-12-18T07:55:32;48.25;;;17.85;;
37955;SDS011;23776;51.592;7.180;2022-12-18T07:58:00;47.65;;;17.23;;
37955;SDS011;23776;51.592;7.180;2022-12-18T08:00:27;40.55;;;17.50;;
37955;SDS011;23776;51.592;7.180;2022-12-18T08:02:52;55.40;;;18.98;;
37955;SDS011;23776;51.592;7.180;2022-12-18T08:05:18;50.60;;;18.20;;
37955;SDS011;23776;51.592;7.180;2022-12-18T08:07:45;42.17;;;16.77;;
37955;SDS011;23776;51.592;7.180;2022-12-18T08:10:11;52.60;;;17.70;;
37955;SDS011;23776;51.592;7.180;2022-12-18T08:12:36;57.53;;;20.20;;
37955;SDS011;23776;51.592;7.180;2022-12-18T08:15:02;52.67;;;17.60;;
37955;SDS011;23776;51.592;7.180;2022-12-18T08:17:28;45.33;;;17.20;;
37955;SDS011;23776;51.592;7.180;2022-12-18T08:19:54;47.13;;;16.77;;
37955;SDS011;23776;51.592;7.180;2022-12-18T08:22:19;45.30;;;18.48;;
37955;SDS011;23776;51.592;7.180;2022-12-18T08:24:45;43.10;;;18.50;;
37955;SDS011;23776;51.592;7.180;2022-12-18T08:27:10;49.88;;;18.80;;
37955;SDS011;23776;51.592;7.180;2022-12-18T08:29:36;48.65;;;19.80;;
37955;SDS011;23776;51.592;7.180;2022-12-18T08:32:02;50.80;;;19.02;;
37955;SDS011;23776;51.592;7.180;2022-12-18T08:34:27;47.05;;;18.23;;
37955;SDS011;23776;51.592;7.180;2022-12-18T08:36:53;47.58;;;18.95;;
37955;SDS011;23776;51.592;7.180;2022-12-18T08:39:19;45.30;;;18.52;;
37955;SDS011;23776;51.592;7.180;2022-12-18T08:41:44;56.30;;;18.52;;
37955;SDS011;23776;51.592;7.180;2022-12-18T08:44:30;41.97;;;16.92;;
37955;SDS011;23776;51.592;7.180;2022-12-18T08:47:07;46.67;;;17.73;;
37955;SDS011;23776;51.592;7.180;2022-12-18T08:49:33;43.70;;;16.52;;
37955;SDS011;23776;51.592;7.180;2022-12-18T08:51:59;50.47;;;20.83;;
37955;SDS011;23776;51.592;7.180;2022-12-18T08:54:26;60.70;;;24.25;;
37955;SDS011;23776;51.592;7.180;2022-12-18T08:56:52;52.00;;;21.38;;
37955;SDS011;23776;51.592;7.180;2022-12-18T08:59:18;51.22;;;20.95;;
37955;SDS011;23776;51.592;7.180;2022-12-18T09:01:44;42.05;;;16.70;;
37955;SDS011;23776;51.592;7.180;2022-12-18T09:04:11;38.53;;;17.23;;
37955;SDS011;23776;51.592;7.180;2022-12-18T09:06:37;60.05;;;24.48;;
37955;SDS011;23776;51.592;7.180;2022-12-18T09:09:03;49.70;;;21.02;;
37955;SDS011;23776;51.592;7.180;2022-12-18T09:11:29;52.28;;;20.98;;
37955;SDS011;23776;51.592;7.180;2022-12-18T09:13:56;57.70;;;21.77;;
37955;SDS011;23776;51.592;7.180;2022-12-18T09:16:23;47.55;;;18.33;;
37955;SDS011;23776;51.592;7.180;2022-12-18T09:18:50;36.40;;;16.05;;
37955;SDS011;23776;51.592;7.180;2022-12-18T09:21:19;41.60;;;18.00;;
37955;SDS011;23776;51.592;7.180;2022-12-18T09:23:49;47.72;;;18.08;;
37955;SDS011;23776;51.592;7.180;2022-12-18T09:26:15;39.58;;;16.13;;
37955;SDS011;23776;51.592;7.180;2022-12-18T09:28:41;45.63;;;17.92;;
37955;SDS011;23776;51.592;7.180;2022-12-18T09:31:07;36.80;;;16.10;;
37955;SDS011;23776;51.592;7.180;2022-12-18T09:33:34;34.00;;;14.82;;
37955;SDS011;23776;51.592;7.180;2022-12-18T09:36:02;38.17;;;15.82;;
37955;SDS011;23776;51.592;7.180;2022-12-18T09:38:29;38.30;;;15.60;;
37955;SDS011;23776;51.592;7.180;2022-12-18T09:40:56;35.03;;;15.20;;
37955;SDS011;23776;51.592;7.180;2022-12-18T09:43:44;33.10;;;14.10;;
37955;SDS011;23776;51.592;7.180;2022-12-18T09:46:16;33.67;;;13.50;;
37955;SDS011;23776;51.592;7.180;2022-12-18T09:48:56;35.00;;;13.32;;
37955;SDS011;23776;51.592;7.180;2022-12-18T09:51:39;39.58;;;14.25;;
37955;SDS011;23776;51.592;7.180;2022-12-18T09:54:16;29.50;;;12.63;;
37955;SDS011;23776;51.592;7.180;2022-12-18T09:56:46;33.42;;;13.80;;
37955;SDS011;23776;51.592;7.180;2022-12-18T10:01:47;29.30;;;13.77;;
37955;SDS011;23776;51.592;7.180;2022-12-18T10:04:13;31.70;;;14.15;;
37955;SDS011;23776;51.592;7.180;2022-12-18T10:09:31;36.45;;;16.05;;
37955;SDS011;23776;51.592;7.180;2022-12-18T10:12:07;35.40;;;15.90;;
37955;SDS011;23776;51.592;7.180;2022-12-18T10:20:16;40.55;;;15.75;;
37955;SDS011;23776;51.592;7.180;2022-12-18T10:23:09;35.72;;;14.75;;
37955;SDS011;23776;51.592;7.180;2022-12-18T10:28:30;43.97;;;18.40;;
37955;SDS011;23776;51.592;7.180;2022-12-18T10:30:57;48.15;;;24.08;;
37955;SDS011;23776;51.592;7.180;2022-12-18T10:33:27;39.30;;;17.67;;
37955;SDS011;23776;51.592;7.180;2022-12-18T10:35:54;39.92;;;16.00;;
37955;SDS011;23776;51.592;7.180;2022-12-18T10:43:35;83.88;;;32.97;;
37955;SDS011;23776;51.592;7.180;2022-12-18T10:48:40;35.55;;;17.70;;
37955;SDS011;23776;51.592;7.180;2022-12-18T10:53:51;40.17;;;19.33;;
37955;SDS011;23776;51.592;7.180;2022-12-18T10:56:22;40.85;;;20.42;;
37955;SDS011;23776;51.592;7.180;2022-12-18T10:59:00;35.33;;;17.95;;
37955;SDS011;23776;51.592;7.180;2022-12-18T11:04:22;30.98;;;15.25;;
37955;SDS011;23776;51.592;7.180;2022-12-18T11:09:25;31.38;;;13.73;;
37955;SDS011;23776;51.592;7.180;2022-12-18T11:11:54;30.67;;;14.00;;
37955;SDS011;23776;51.592;7.180;2022-12-18T11:14:26;36.03;;;14.27;;
37955;SDS011;23776;51.592;7.180;2022-12-18T11:16:57;27.77;;;13.25;;
37955;SDS011;23776;51.592;7.180;2022-12-18T11:19:32;29.27;;;12.98;;
37955;SDS011;23776;51.592;7.180;2022-12-18T11:22:42;29.63;;;13.73;;
37955;SDS011;23776;51.592;7.180;2022-12-18T11:24:59;31.83;;;13.63;;
37955;SDS011;23776;51.592;7.180;2022-12-18T11:27:28;34.00;;;14.43;;
37955;SDS011;23776;51.592;7.180;2022-12-18T11:30:07;35.22;;;14.82;;
37955;SDS011;23776;51.592;7.180;2022-12-18T11:35:16;27.85;;;13.73;;
37955;SDS011;23776;51.592;7.180;2022-12-18T11:37:56;31.63;;;13.45;;
37955;SDS011;23776;51.592;7.180;2022-12-18T11:40:33;27.58;;;13.02;;
37955;SDS011;23776;51.592;7.180;2022-12-18T11:43:20;30.38;;;14.45;;
37955;SDS011;23776;51.592;7.180;2022-12-18T11:45:55;72.43;;;27.27;;
37955;SDS011;23776;51.592;7.180;2022-12-18T11:48:41;51.97;;;21.60;;
37955;SDS011;23776;51.592;7.180;2022-12-18T11:51:18;42.88;;;20.95;;
37955;SDS011;23776;51.592;7.180;2022-12-18T11:53:51;38.22;;;16.02;;
37955;SDS011;23776;51.592;7.180;2022-12-18T12:01:36;30.80;;;14.30;;
37955;SDS011;23776;51.592;7.180;2022-12-18T12:18:00;28.85;;;11.95;;
37955;SDS011;23776;51.592;7.180;2022-12-18T12:20:39;30.23;;;13.93;;
37955;SDS011;23776;51.592;7.180;2022-12-18T12:24:00;29.20;;;13.48;;
37955;SDS011;23776;51.592;7.180;2022-12-18T12:26:14;29.73;;;13.82;;
37955;SDS011;23776;51.592;7.180;2022-12-18T12:34:38;26.63;;;12.68;;
37955;SDS011;23776;51.592;7.180;2022-12-18T12:37:36;27.23;;;13.23;;
37955;SDS011;23776;51.592;7.180;2022-12-18T12:40:24;26.02;;;12.38;;
37955;SDS011;23776;51.592;7.180;2022-12-18T12:42:55;28.52;;;12.15;;
37955;SDS011;23776;51.592;7.180;2022-12-18T12:45:53;25.27;;;11.75;;
37955;SDS011;23776;51.592;7.180;2022-12-18T12:48:31;24.75;;;11.25;;
37955;SDS011;23776;51.592;7.180;2022-12-18T12:50:58;23.98;;;12.18;;
37955;SDS011;23776;51.592;7.180;2022-12-18T12:53:33;22.92;;;11.30;;
37955;SDS011;23776;51.592;7.180;2022-12-18T12:56:01;20.95;;;11.07;;
37955;SDS011;23776;51.592;7.180;2022-12-18T12:58:33;27.25;;;12.20;;
37955;SDS011;23776;51.592;7.180;2022-12-18T13:01:48;43.45;;;23.77;;
37955;SDS011;23776;51.592;7.180;2022-12-18T13:07:04;36.33;;;18.20;;
37955;SDS011;23776;51.592;7.180;2022-12-18T13:18:11;26.70;;;12.50;;
37955;SDS011;23776;51.592;7.180;2022-12-18T13:25:50;27.52;;;13.15;;
37955;SDS011;23776;51.592;7.180;2022-12-18T13:30:59;26.13;;;12.95;;
37955;SDS011;23776;51.592;7.180;2022-12-18T13:38:42;26.45;;;13.95;;
37955;SDS011;23776;51.592;7.180;2022-12-18T13:43:47;23.67;;;12.23;;
37955;SDS011;23776;51.592;7.180;2022-12-18T13:51:39;28.17;;;13.50;;
37955;SDS011;23776;51.592;7.180;2022-12-18T13:56:57;32.95;;;15.75;;
37955;SDS011;23776;51.592;7.180;2022-12-18T14:01:58;29.65;;;13.73;;
37955;SDS011;23776;51.592;7.180;2022-12-18T14:04:27;31.52;;;14.30;;
37955;SDS011;23776;51.592;7.180;2022-12-18T14:06:58;30.25;;;14.77;;
37955;SDS011;23776;51.592;7.180;2022-12-18T14:09:30;34.20;;;14.57;;
37955;SDS011;23776;51.592;7.180;2022-12-18T14:12:00;29.02;;;13.23;;
37955;SDS011;23776;51.592;7.180;2022-12-18T14:14:49;32.30;;;13.20;;
37955;SDS011;23776;51.592;7.180;2022-12-18T14:17:17;28.88;;;13.43;;
37955;SDS011;23776;51.592;7.180;2022-12-18T14:19:44;29.88;;;13.98;;
37955;SDS011;23776;51.592;7.180;2022-12-18T14:22:19;25.08;;;12.80;;
37955;SDS011;23776;51.592;7.180;2022-12-18T14:24:46;27.60;;;13.45;;
37955;SDS011;23776;51.592;7.180;2022-12-18T14:27:29;27.43;;;14.37;;
37955;SDS011;23776;51.592;7.180;2022-12-18T14:29:55;29.10;;;13.95;;
37955;SDS011;23776;51.592;7.180;2022-12-18T14:32:20;33.15;;;14.63;;
37955;SDS011;23776;51.592;7.180;2022-12-18T14:34:47;26.67;;;14.73;;
37955;SDS011;23776;51.592;7.180;2022-12-18T14:37:14;31.67;;;13.88;;
37955;SDS011;23776;51.592;7.180;2022-12-18T14:39:51;32.58;;;14.00;;
37955;SDS011;23776;51.592;7.180;2022-12-18T14:42:21;28.75;;;12.60;;
37955;SDS011;23776;51.592;7.180;2022-12-18T14:44:47;28.70;;;13.70;;
37955;SDS011;23776;51.592;7.180;2022-12-18T14:47:14;33.35;;;13.52;;
37955;SDS011;23776;51.592;7.180;2022-12-18T14:49:40;29.92;;;14.55;;
37955;SDS011;23776;51.592;7.180;2022-12-18T14:52:25;30.25;;;14.15;;
37955;SDS011;23776;51.592;7.180;2022-12-18T14:54:54;29.45;;;13.25;;
37955;SDS011;23776;51.592;7.180;2022-12-18T14:57:25;41.20;;;17.55;;
37955;SDS011;23776;51.592;7.180;2022-12-18T15:00:04;44.30;;;17.85;;
37955;SDS011;23776;51.592;7.180;2022-12-18T15:02:31;31.40;;;16.65;;
37955;SDS011;23776;51.592;7.180;2022-12-18T15:20:41;32.70;;;14.75;;
37955;SDS011;23776;51.592;7.180;2022-12-18T15:26:11;33.83;;;13.85;;
37955;SDS011;23776;51.592;7.180;2022-12-18T15:33:40;36.47;;;15.18;;
37955;SDS011;23776;51.592;7.180;2022-12-18T15:36:16;34.80;;;14.70;;
37955;SDS011;23776;51.592;7.180;2022-12-18T15:38:52;34.22;;;14.85;;
37955;SDS011;23776;51.592;7.180;2022-12-18T15:41:20;29.33;;;14.27;;
37955;SDS011;23776;51.592;7.180;2022-12-18T15:43:50;35.10;;;14.98;;
37955;SDS011;23776;51.592;7.180;2022-12-18T15:46:18;33.63;;;14.50;;
37955;SDS011;23776;51.592;7.180;2022-12-18T15:48:46;33.92;;;15.38;;
37955;SDS011;23776;51.592;7.180;2022-12-18T15:51:16;30.55;;;14.55;;
37955;SDS011;23776;51.592;7.180;2022-12-18T15:53:45;35.22;;;15.02;;
37955;SDS011;23776;51.592;7.180;2022-12-18T15:56:12;35.42;;;15.23;;
37955;SDS011;23776;51.592;7.180;2022-12-18T15:58:58;29.65;;;13.43;;
37955;SDS011;23776;51.592;7.180;2022-12-18T16:01:28;35.38;;;14.35;;
37955;SDS011;23776;51.592;7.180;2022-12-18T16:03:56;33.30;;;13.13;;
37955;SDS011;23776;51.592;7.180;2022-12-18T16:06:22;33.78;;;14.43;;
37955;SDS011;23776;51.592;7.180;2022-12-18T16:08:48;39.15;;;13.68;;
37955;SDS011;23776;51.592;7.180;2022-12-18T16:11:30;36.55;;;13.13;;
37955;SDS011;23776;51.592;7.180;2022-12-18T16:14:12;31.00;;;12.88;;
37955;SDS011;23776;51.592;7.180;2022-12-18T16:16:49;28.35;;;11.88;;
37955;SDS011;23776;51.592;7.180;2022-12-18T16:19:16;31.20;;;13.48;;
37955;SDS011;23776;51.592;7.180;2022-12-18T16:21:42;33.22;;;12.23;;
37955;SDS011;23776;51.592;7.180;2022-12-18T16:24:18;28.92;;;12.98;;
37955;SDS011;23776;51.592;7.180;2022-12-18T16:26:46;94.43;;;42.00;;
37955;SDS011;23776;51.592;7.180;2022-12-18T16:29:12;41.83;;;16.67;;
37955;SDS011;23776;51.592;7.180;2022-12-18T16:31:38;36.05;;;13.32;;
37955;SDS011;23776;51.592;7.180;2022-12-18T16:36:51;34.45;;;13.55;;
37955;SDS011;23776;51.592;7.180;2022-12-18T16:39:18;36.80;;;13.07;;
37955;SDS011;23776;51.592;7.180;2022-12-18T16:41:44;30.58;;;12.60;;
37955;SDS011;23776;51.592;7.180;2022-12-18T16:44:10;33.97;;;13.68;;
37955;SDS011;23776;51.592;7.180;2022-12-18T16:46:37;29.65;;;12.23;;
37955;SDS011;23776;51.592;7.180;2022-12-18T16:49:04;30.23;;;13.02;;
37955;SDS011;23776;51.592;7.180;2022-12-18T16:51:30;36.63;;;14.52;;
37955;SDS011;23776;51.592;7.180;2022-12-18T16:53:56;37.92;;;14.30;;
37955;SDS011;23776;51.592;7.180;2022-12-18T16:56:21;31.50;;;13.23;;
37955;SDS011;23776;51.592;7.180;2022-12-18T16:58:55;37.55;;;13.40;;
37955;SDS011;23776;51.592;7.180;2022-12-18T17:01:22;39.97;;;14.65;;
37955;SDS011;23776;51.592;7.180;2022-12-18T17:03:52;37.05;;;15.13;;
37955;SDS011;23776;51.592;7.180;2022-12-18T17:06:18;43.38;;;15.27;;